KMDH/MDH METAR and TAF weather

Enter ICAO airport designator
Station Type Date Time Source
KMDH METAR 2020/01/24 03:14 UTC NOAA

KMDH 240314Z AUTO 00000KT 1SM BR OVC003 02/02 A2988 RMK AO2 RAE03 P0001 T00170017


Station Type Date Time Source
KMDH Decoded METAR 2020/01/24 03:14 UTC NOAA

SOUTHERN ILLINOIS AIRPORT, IL, United States (KMDH) 37-47N 089-15W 130M
Jan 23, 2020 - 10:14 PM EST / 2020.01.24 0314 UTC
Wind: Calm:0
Visibility: 1 mile(s):0
Sky conditions: overcast
Weather: mist
Precipitation last hour: 0.01 inches
Temperature: 35.1 F (1.7 C)
Dew Point: 35.1 F (1.7 C)
Relative Humidity: 100%
Pressure (altimeter): 29.88 in. Hg (1011 hPa)
ob: KMDH 240314Z AUTO 00000KT 1SM BR OVC003 02/02 A2988 RMK AO2 RAE03 P0001 T00170017
cycle: 3

Station Type Date Time Source
KMDH TAF UTC NOAA

Error!

Example: see airport list